sensor_id;sensor_type;location;lat;lon;timestamp;temperature;humidity
11922;DHT22;6021;51.182;3.160;2024-03-02T00:00:20;5.70;99.90
11922;DHT22;6021;51.182;3.160;2024-03-02T00:02:52;5.90;99.90
11922;DHT22;6021;51.182;3.160;2024-03-02T00:05:22;6.00;99.90
11922;DHT22;6021;51.182;3.160;2024-03-02T00:07:55;6.00;99.90
11922;DHT22;6021;51.182;3.160;2024-03-02T00:10:25;5.80;99.90
11922;DHT22;6021;51.182;3.160;2024-03-02T00:12:58;5.70;99.90
11922;DHT22;6021;51.182;3.160;2024-03-02T00:15:48;5.70;99.90
11922;DHT22;6021;51.182;3.160;2024-03-02T00:18:20;5.70;99.90
11922;DHT22;6021;51.182;3.160;2024-03-02T00:20:48;5.70;99.90
11922;DHT22;6021;51.182;3.160;2024-03-02T00:23:18;5.70;99.90
11922;DHT22;6021;51.182;3.160;2024-03-02T00:25:52;5.70;99.90
11922;DHT22;6021;51.182;3.160;2024-03-02T00:28:32;5.60;99.90
11922;DHT22;6021;51.182;3.160;2024-03-02T00:31:08;5.70;99.90
11922;DHT22;6021;51.182;3.160;2024-03-02T00:33:47;5.70;99.90
11922;DHT22;6021;51.182;3.160;2024-03-02T00:36:22;5.70;99.90
11922;DHT22;6021;51.182;3.160;2024-03-02T00:38:54;5.70;99.90
11922;DHT22;6021;51.182;3.160;2024-03-02T00:41:28;5.70;99.90
11922;DHT22;6021;51.182;3.160;2024-03-02T00:44:01;5.70;99.90
11922;DHT22;6021;51.182;3.160;2024-03-02T00:46:38;5.70;99.90
11922;DHT22;6021;51.182;3.160;2024-03-02T00:49:04;5.70;99.90
11922;DHT22;6021;51.182;3.160;2024-03-02T00:51:33;5.70;99.90
11922;DHT22;6021;51.182;3.160;2024-03-02T00:54:05;5.70;99.90
11922;DHT22;6021;51.182;3.160;2024-03-02T00:56:34;5.70;99.90
11922;DHT22;6021;51.182;3.160;2024-03-02T00:59:03;5.70;99.90
11922;DHT22;6021;51.182;3.160;2024-03-02T01:01:31;5.70;99.90
11922;DHT22;6021;51.182;3.160;2024-03-02T01:04:00;5.50;99.90
11922;DHT22;6021;51.182;3.160;2024-03-02T01:06:28;5.60;99.90
11922;DHT22;6021;51.182;3.160;2024-03-02T01:08:57;5.70;99.90
11922;DHT22;6021;51.182;3.160;2024-03-02T01:11:25;5.70;99.90
11922;DHT22;6021;51.182;3.160;2024-03-02T01:13:54;5.60;99.90
11922;DHT22;6021;51.182;3.160;2024-03-02T01:16:22;5.70;99.90
11922;DHT22;6021;51.182;3.160;2024-03-02T01:18:50;5.60;99.90
11922;DHT22;6021;51.182;3.160;2024-03-02T01:21:19;5.50;99.90
11922;DHT22;6021;51.182;3.160;2024-03-02T01:23:47;5.40;99.90
11922;DHT22;6021;51.182;3.160;2024-03-02T01:26:15;5.50;99.90
11922;DHT22;6021;51.182;3.160;2024-03-02T01:28:44;5.50;99.90
11922;DHT22;6021;51.182;3.160;2024-03-02T01:31:12;5.50;99.90
11922;DHT22;6021;51.182;3.160;2024-03-02T01:33:41;5.50;99.90
11922;DHT22;6021;51.182;3.160;2024-03-02T01:36:09;5.50;99.90
11922;DHT22;6021;51.182;3.160;2024-03-02T01:38:37;5.50;99.90
11922;DHT22;6021;51.182;3.160;2024-03-02T01:41:06;5.50;99.90
11922;DHT22;6021;51.182;3.160;2024-03-02T01:43:36;5.30;99.90
11922;DHT22;6021;51.182;3.160;2024-03-02T01:46:04;5.30;99.90
11922;DHT22;6021;51.182;3.160;2024-03-02T01:48:33;5.30;99.90
11922;DHT22;6021;51.182;3.160;2024-03-02T01:51:01;5.20;99.90
11922;DHT22;6021;51.182;3.160;2024-03-02T01:53:29;5.50;99.90
11922;DHT22;6021;51.182;3.160;2024-03-02T01:55:58;5.50;99.90
11922;DHT22;6021;51.182;3.160;2024-03-02T01:58:26;5.40;99.90
11922;DHT22;6021;51.182;3.160;2024-03-02T02:00:55;5.30;99.90
11922;DHT22;6021;51.182;3.160;2024-03-02T02:03:23;5.20;99.90
11922;DHT22;6021;51.182;3.160;2024-03-02T02:05:51;5.40;99.90
11922;DHT22;6021;51.182;3.160;2024-03-02T02:08:20;5.10;99.90
11922;DHT22;6021;51.182;3.160;2024-03-02T02:10:48;5.20;99.90
11922;DHT22;6021;51.182;3.160;2024-03-02T02:13:17;5.20;99.90
11922;DHT22;6021;51.182;3.160;2024-03-02T02:15:45;5.10;99.90
11922;DHT22;6021;51.182;3.160;2024-03-02T02:18:14;5.30;99.90
11922;DHT22;6021;51.182;3.160;2024-03-02T02:20:42;5.20;99.90
11922;DHT22;6021;51.182;3.160;2024-03-02T02:23:10;5.30;99.90
11922;DHT22;6021;51.182;3.160;2024-03-02T02:25:40;5.20;99.90
11922;DHT22;6021;51.182;3.160;2024-03-02T02:28:09;5.20;99.90
11922;DHT22;6021;51.182;3.160;2024-03-02T02:30:37;5.10;99.90
11922;DHT22;6021;51.182;3.160;2024-03-02T02:33:05;5.10;99.90
11922;DHT22;6021;51.182;3.160;2024-03-02T02:35:34;5.10;99.90
11922;DHT22;6021;51.182;3.160;2024-03-02T02:38:03;5.30;99.90
11922;DHT22;6021;51.182;3.160;2024-03-02T02:40:32;5.30;99.90
11922;DHT22;6021;51.182;3.160;2024-03-02T02:43:00;5.10;99.90
11922;DHT22;6021;51.182;3.160;2024-03-02T02:45:29;5.00;99.90
11922;DHT22;6021;51.182;3.160;2024-03-02T02:47:57;5.10;99.90
11922;DHT22;6021;51.182;3.160;2024-03-02T02:50:26;5.10;99.90
11922;DHT22;6021;51.182;3.160;2024-03-02T02:52:54;5.10;99.90
11922;DHT22;6021;51.182;3.160;2024-03-02T02:55:23;5.20;99.90
11922;DHT22;6021;51.182;3.160;2024-03-02T02:57:51;5.20;99.90
11922;DHT22;6021;51.182;3.160;2024-03-02T03:00:20;5.20;99.90
11922;DHT22;6021;51.182;3.160;2024-03-02T03:02:50;5.30;99.90
11922;DHT22;6021;51.182;3.160;2024-03-02T03:05:18;5.30;99.90
11922;DHT22;6021;51.182;3.160;2024-03-02T03:07:47;5.00;99.90
11922;DHT22;6021;51.182;3.160;2024-03-02T03:10:17;5.00;99.90
11922;DHT22;6021;51.182;3.160;2024-03-02T03:12:45;5.10;99.90
11922;DHT22;6021;51.182;3.160;2024-03-02T03:15:15;5.20;99.90
11922;DHT22;6021;51.182;3.160;2024-03-02T03:17:44;5.20;99.90
11922;DHT22;6021;51.182;3.160;2024-03-02T03:20:13;4.90;99.90
11922;DHT22;6021;51.182;3.160;2024-03-02T03:22:42;5.00;99.90
11922;DHT22;6021;51.182;3.160;2024-03-02T03:25:11;5.10;99.90
11922;DHT22;6021;51.182;3.160;2024-03-02T03:27:39;5.10;99.90
11922;DHT22;6021;51.182;3.160;2024-03-02T03:30:09;5.20;99.90
11922;DHT22;6021;51.182;3.160;2024-03-02T03:32:37;4.90;99.90
11922;DHT22;6021;51.182;3.160;2024-03-02T03:35:06;4.80;99.90
11922;DHT22;6021;51.182;3.160;2024-03-02T03:37:35;5.10;99.90
11922;DHT22;6021;51.182;3.160;2024-03-02T03:40:03;5.00;99.90
11922;DHT22;6021;51.182;3.160;2024-03-02T03:42:33;4.90;99.90
11922;DHT22;6021;51.182;3.160;2024-03-02T03:45:03;5.20;99.90
11922;DHT22;6021;51.182;3.160;2024-03-02T03:47:32;5.20;99.90
11922;DHT22;6021;51.182;3.160;2024-03-02T03:50:00;4.70;99.90
11922;DHT22;6021;51.182;3.160;2024-03-02T03:52:30;5.10;99.90
11922;DHT22;6021;51.182;3.160;2024-03-02T03:54:59;5.00;99.90
11922;DHT22;6021;51.182;3.160;2024-03-02T03:57:27;4.90;99.90
11922;DHT22;6021;51.182;3.160;2024-03-02T03:59:56;4.80;99.90
11922;DHT22;6021;51.182;3.160;2024-03-02T04:02:24;4.90;99.90
11922;DHT22;6021;51.182;3.160;2024-03-02T04:04:58;4.80;99.90
11922;DHT22;6021;51.182;3.160;2024-03-02T04:07:27;4.80;99.90
11922;DHT22;6021;51.182;3.160;2024-03-02T04:09:55;4.90;99.90
11922;DHT22;6021;51.182;3.160;2024-03-02T04:12:24;4.70;99.90
11922;DHT22;6021;51.182;3.160;2024-03-02T04:14:52;5.10;99.90
11922;DHT22;6021;51.182;3.160;2024-03-02T04:17:22;4.90;99.90
11922;DHT22;6021;51.182;3.160;2024-03-02T04:19:50;4.70;99.90
11922;DHT22;6021;51.182;3.160;2024-03-02T04:22:19;5.10;99.90
11922;DHT22;6021;51.182;3.160;2024-03-02T04:24:47;5.20;99.90
11922;DHT22;6021;51.182;3.160;2024-03-02T04:27:16;4.90;99.90
11922;DHT22;6021;51.182;3.160;2024-03-02T04:29:44;4.80;99.90
11922;DHT22;6021;51.182;3.160;2024-03-02T04:32:12;4.90;99.90
11922;DHT22;6021;51.182;3.160;2024-03-02T04:34:41;5.20;99.90
11922;DHT22;6021;51.182;3.160;2024-03-02T04:37:10;5.00;99.90
11922;DHT22;6021;51.182;3.160;2024-03-02T04:39:40;5.10;99.90
11922;DHT22;6021;51.182;3.160;2024-03-02T04:42:09;4.90;99.90
11922;DHT22;6021;51.182;3.160;2024-03-02T04:44:37;4.70;99.90
11922;DHT22;6021;51.182;3.160;2024-03-02T04:47:05;4.80;99.90
11922;DHT22;6021;51.182;3.160;2024-03-02T04:49:34;5.00;99.90
11922;DHT22;6021;51.182;3.160;2024-03-02T04:52:02;4.80;99.90
11922;DHT22;6021;51.182;3.160;2024-03-02T04:54:31;5.10;99.90
11922;DHT22;6021;51.182;3.160;2024-03-02T04:56:59;5.20;99.90
11922;DHT22;6021;51.182;3.160;2024-03-02T04:59:27;4.80;99.90
11922;DHT22;6021;51.182;3.160;2024-03-02T05:01:56;5.00;99.90
11922;DHT22;6021;51.182;3.160;2024-03-02T05:04:25;5.10;99.90
11922;DHT22;6021;51.182;3.160;2024-03-02T05:06:54;5.20;99.90
11922;DHT22;6021;51.182;3.160;2024-03-02T05:09:24;4.90;99.90
11922;DHT22;6021;51.182;3.160;2024-03-02T05:11:52;4.70;99.90
11922;DHT22;6021;51.182;3.160;2024-03-02T05:14:34;4.70;99.90
11922;DHT22;6021;51.182;3.160;2024-03-02T05:17:04;4.90;99.90
11922;DHT22;6021;51.182;3.160;2024-03-02T05:19:32;4.90;99.90
11922;DHT22;6021;51.182;3.160;2024-03-02T05:22:00;4.70;99.90
11922;DHT22;6021;51.182;3.160;2024-03-02T05:24:30;4.90;99.90
11922;DHT22;6021;51.182;3.160;2024-03-02T05:26:59;4.80;99.90
11922;DHT22;6021;51.182;3.160;2024-03-02T05:29:28;4.90;99.90
11922;DHT22;6021;51.182;3.160;2024-03-02T05:31:56;4.80;99.90
11922;DHT22;6021;51.182;3.160;2024-03-02T05:34:24;4.90;99.90
11922;DHT22;6021;51.182;3.160;2024-03-02T05:36:53;4.70;99.90
11922;DHT22;6021;51.182;3.160;2024-03-02T05:39:21;4.90;99.90
11922;DHT22;6021;51.182;3.160;2024-03-02T05:41:49;4.70;99.90
11922;DHT22;6021;51.182;3.160;2024-03-02T05:44:18;4.90;99.90
11922;DHT22;6021;51.182;3.160;2024-03-02T05:46:46;4.80;99.90
11922;DHT22;6021;51.182;3.160;2024-03-02T05:49:15;4.60;99.90
11922;DHT22;6021;51.182;3.160;2024-03-02T05:51:43;4.90;99.90
11922;DHT22;6021;51.182;3.160;2024-03-02T05:54:12;4.60;99.90
11922;DHT22;6021;51.182;3.160;2024-03-02T05:56:40;4.80;99.90
11922;DHT22;6021;51.182;3.160;2024-03-02T05:59:08;4.90;99.90
11922;DHT22;6021;51.182;3.160;2024-03-02T06:01:45;4.50;99.90
11922;DHT22;6021;51.182;3.160;2024-03-02T06:04:16;4.80;99.90
11922;DHT22;6021;51.182;3.160;2024-03-02T06:06:45;4.90;99.90
11922;DHT22;6021;51.182;3.160;2024-03-02T06:09:13;4.70;99.90
11922;DHT22;6021;51.182;3.160;2024-03-02T06:11:41;4.90;99.90
11922;DHT22;6021;51.182;3.160;2024-03-02T06:14:10;4.60;99.90
11922;DHT22;6021;51.182;3.160;2024-03-02T06:16:38;4.90;99.90
11922;DHT22;6021;51.182;3.160;2024-03-02T06:19:07;4.70;99.90
11922;DHT22;6021;51.182;3.160;2024-03-02T06:21:35;4.60;99.90
11922;DHT22;6021;51.182;3.160;2024-03-02T06:24:04;4.60;99.90
11922;DHT22;6021;51.182;3.160;2024-03-02T06:26:32;4.90;99.90
11922;DHT22;6021;51.182;3.160;2024-03-02T06:29:01;4.80;99.90
11922;DHT22;6021;51.182;3.160;2024-03-02T06:31:33;4.90;99.90
11922;DHT22;6021;51.182;3.160;2024-03-02T06:34:04;4.70;99.90
11922;DHT22;6021;51.182;3.160;2024-03-02T06:36:32;4.70;99.90
11922;DHT22;6021;51.182;3.160;2024-03-02T06:39:01;4.90;99.90
11922;DHT22;6021;51.182;3.160;2024-03-02T06:41:29;4.80;99.90
11922;DHT22;6021;51.182;3.160;2024-03-02T06:43:58;4.70;99.90
11922;DHT22;6021;51.182;3.160;2024-03-02T06:46:29;4.80;99.90
11922;DHT22;6021;51.182;3.160;2024-03-02T06:48:59;4.90;99.90
11922;DHT22;6021;51.182;3.160;2024-03-02T06:51:29;4.80;99.90
11922;DHT22;6021;51.182;3.160;2024-03-02T06:53:57;5.10;99.90
11922;DHT22;6021;51.182;3.160;2024-03-02T06:56:26;4.70;99.90
11922;DHT22;6021;51.182;3.160;2024-03-02T06:58:54;4.70;99.90
11922;DHT22;6021;51.182;3.160;2024-03-02T07:01:22;4.70;99.90
11922;DHT22;6021;51.182;3.160;2024-03-02T07:03:52;4.90;99.90
11922;DHT22;6021;51.182;3.160;2024-03-02T07:06:21;4.90;99.90
11922;DHT22;6021;51.182;3.160;2024-03-02T07:08:49;4.80;99.90
11922;DHT22;6021;51.182;3.160;2024-03-02T07:11:17;4.90;99.90
11922;DHT22;6021;51.182;3.160;2024-03-02T07:13:50;4.90;99.90
11922;DHT22;6021;51.182;3.160;2024-03-02T07:16:19;4.70;99.90
11922;DHT22;6021;51.182;3.160;2024-03-02T07:18:51;4.90;99.90
11922;DHT22;6021;51.182;3.160;2024-03-02T07:21:19;5.10;99.90
11922;DHT22;6021;51.182;3.160;2024-03-02T07:23:49;5.00;99.90
11922;DHT22;6021;51.182;3.160;2024-03-02T07:26:18;5.10;99.90
11922;DHT22;6021;51.182;3.160;2024-03-02T07:28:46;5.20;99.90
11922;DHT22;6021;51.182;3.160;2024-03-02T07:31:18;5.00;99.90
11922;DHT22;6021;51.182;3.160;2024-03-02T07:33:46;5.10;99.90
11922;DHT22;6021;51.182;3.160;2024-03-02T07:36:15;5.30;99.90
11922;DHT22;6021;51.182;3.160;2024-03-02T07:38:43;5.20;99.90
11922;DHT22;6021;51.182;3.160;2024-03-02T07:41:15;5.20;99.90
11922;DHT22;6021;51.182;3.160;2024-03-02T07:43:45;5.50;99.90
11922;DHT22;6021;51.182;3.160;2024-03-02T07:46:14;5.50;99.90
11922;DHT22;6021;51.182;3.160;2024-03-02T07:48:42;5.20;99.90
11922;DHT22;6021;51.182;3.160;2024-03-02T07:51:11;5.80;99.90
11922;DHT22;6021;51.182;3.160;2024-03-02T07:53:41;5.50;99.90
11922;DHT22;6021;51.182;3.160;2024-03-02T07:56:09;5.80;99.90
11922;DHT22;6021;51.182;3.160;2024-03-02T07:58:37;5.40;99.90
11922;DHT22;6021;51.182;3.160;2024-03-02T08:01:06;5.50;99.90
11922;DHT22;6021;51.182;3.160;2024-03-02T08:03:34;5.70;99.90
11922;DHT22;6021;51.182;3.160;2024-03-02T08:06:03;5.60;99.90
11922;DHT22;6021;51.182;3.160;2024-03-02T08:08:31;5.70;99.90
11922;DHT22;6021;51.182;3.160;2024-03-02T08:11:00;5.80;99.90
11922;DHT22;6021;51.182;3.160;2024-03-02T08:13:28;5.80;99.90
11922;DHT22;6021;51.182;3.160;2024-03-02T08:15:57;5.80;99.90
11922;DHT22;6021;51.182;3.160;2024-03-02T08:18:26;6.10;99.90
11922;DHT22;6021;51.182;3.160;2024-03-02T08:20:55;6.20;99.90
11922;DHT22;6021;51.182;3.160;2024-03-02T08:23:23;6.40;99.90
11922;DHT22;6021;51.182;3.160;2024-03-02T08:25:52;6.50;99.90
11922;DHT22;6021;51.182;3.160;2024-03-02T08:28:20;6.80;99.90
11922;DHT22;6021;51.182;3.160;2024-03-02T08:30:48;7.00;93.80
11922;DHT22;6021;51.182;3.160;2024-03-02T08:33:17;7.00;71.20
11922;DHT22;6021;51.182;3.160;2024-03-02T08:35:45;7.00;67.30
11922;DHT22;6021;51.182;3.160;2024-03-02T08:38:14;7.00;56.70
11922;DHT22;6021;51.182;3.160;2024-03-02T08:40:42;6.70;54.30
11922;DHT22;6021;51.182;3.160;2024-03-02T08:43:11;6.80;50.80
11922;DHT22;6021;51.182;3.160;2024-03-02T08:45:40;6.80;39.30
11922;DHT22;6021;51.182;3.160;2024-03-02T08:48:08;6.80;39.60
11922;DHT22;6021;51.182;3.160;2024-03-02T08:50:37;7.10;22.40
11922;DHT22;6021;51.182;3.160;2024-03-02T08:53:05;7.10;15.80
11922;DHT22;6021;51.182;3.160;2024-03-02T08:55:34;7.30;1.00
11922;DHT22;6021;51.182;3.160;2024-03-02T08:58:02;7.80;1.00
11922;DHT22;6021;51.182;3.160;2024-03-02T09:00:31;7.60;1.00
11922;DHT22;6021;51.182;3.160;2024-03-02T09:02:59;7.70;1.00
11922;DHT22;6021;51.182;3.160;2024-03-02T09:05:27;7.60;1.00
11922;DHT22;6021;51.182;3.160;2024-03-02T09:07:56;7.50;1.00
11922;DHT22;6021;51.182;3.160;2024-03-02T09:10:24;7.60;1.00
11922;DHT22;6021;51.182;3.160;2024-03-02T09:12:52;7.60;1.00
11922;DHT22;6021;51.182;3.160;2024-03-02T09:15:21;7.30;1.00
11922;DHT22;6021;51.182;3.160;2024-03-02T09:17:49;7.50;1.00
11922;DHT22;6021;51.182;3.160;2024-03-02T09:20:18;7.60;1.00
11922;DHT22;6021;51.182;3.160;2024-03-02T09:22:47;7.40;1.00
11922;DHT22;6021;51.182;3.160;2024-03-02T09:25:16;7.80;1.00
11922;DHT22;6021;51.182;3.160;2024-03-02T09:27:44;7.50;1.00
11922;DHT22;6021;51.182;3.160;2024-03-02T09:30:14;7.60;1.00
11922;DHT22;6021;51.182;3.160;2024-03-02T09:32:42;7.60;1.00
11922;DHT22;6021;51.182;3.160;2024-03-02T09:35:11;7.60;1.00
11922;DHT22;6021;51.182;3.160;2024-03-02T09:37:39;7.30;1.00
11922;DHT22;6021;51.182;3.160;2024-03-02T09:40:08;7.70;1.00
11922;DHT22;6021;51.182;3.160;2024-03-02T09:42:37;7.60;1.00
11922;DHT22;6021;51.182;3.160;2024-03-02T09:45:06;7.60;1.00
11922;DHT22;6021;51.182;3.160;2024-03-02T09:47:34;7.60;1.00
11922;DHT22;6021;51.182;3.160;2024-03-02T09:50:06;7.60;1.00
11922;DHT22;6021;51.182;3.160;2024-03-02T09:52:35;7.80;1.00
11922;DHT22;6021;51.182;3.160;2024-03-02T09:55:04;7.90;1.00
11922;DHT22;6021;51.182;3.160;2024-03-02T09:57:33;8.10;1.00
11922;DHT22;6021;51.182;3.160;2024-03-02T10:00:01;7.90;1.00
11922;DHT22;6021;51.182;3.160;2024-03-02T10:02:30;8.10;1.00
11922;DHT22;6021;51.182;3.160;2024-03-02T10:04:58;8.50;1.00
11922;DHT22;6021;51.182;3.160;2024-03-02T10:07:27;8.80;1.00
11922;DHT22;6021;51.182;3.160;2024-03-02T10:09:55;9.10;1.00
11922;DHT22;6021;51.182;3.160;2024-03-02T10:12:23;9.10;1.00
11922;DHT22;6021;51.182;3.160;2024-03-02T10:15:02;8.90;1.00
11922;DHT22;6021;51.182;3.160;2024-03-02T10:17:23;9.40;1.00
11922;DHT22;6021;51.182;3.160;2024-03-02T10:19:53;9.40;1.00
11922;DHT22;6021;51.182;3.160;2024-03-02T10:22:23;9.40;1.00
11922;DHT22;6021;51.182;3.160;2024-03-02T10:24:51;9.00;1.00
11922;DHT22;6021;51.182;3.160;2024-03-02T10:27:25;9.10;1.00
11922;DHT22;6021;51.182;3.160;2024-03-02T10:29:53;8.80;1.00
11922;DHT22;6021;51.182;3.160;2024-03-02T10:32:26;9.10;1.00
11922;DHT22;6021;51.182;3.160;2024-03-02T10:34:55;9.10;1.00
11922;DHT22;6021;51.182;3.160;2024-03-02T10:37:24;9.00;1.00
11922;DHT22;6021;51.182;3.160;2024-03-02T10:39:53;9.40;1.00
11922;DHT22;6021;51.182;3.160;2024-03-02T10:42:23;9.40;1.00
11922;DHT22;6021;51.182;3.160;2024-03-02T10:44:52;9.40;1.00
11922;DHT22;6021;51.182;3.160;2024-03-02T10:47:21;9.70;1.00
11922;DHT22;6021;51.182;3.160;2024-03-02T10:49:51;9.90;1.00
11922;DHT22;6021;51.182;3.160;2024-03-02T10:52:20;10.20;1.00
11922;DHT22;6021;51.182;3.160;2024-03-02T10:54:50;10.70;1.00
11922;DHT22;6021;51.182;3.160;2024-03-02T10:57:21;11.00;1.00
11922;DHT22;6021;51.182;3.160;2024-03-02T11:00:01;11.10;99.90
11922;DHT22;6021;51.182;3.160;2024-03-02T11:02:25;10.60;99.90
11922;DHT22;6021;51.182;3.160;2024-03-02T11:04:55;10.30;99.90
11922;DHT22;6021;51.182;3.160;2024-03-02T11:07:25;10.00;99.90
11922;DHT22;6021;51.182;3.160;2024-03-02T11:09:57;9.90;99.90
11922;DHT22;6021;51.182;3.160;2024-03-02T11:15:18;9.80;99.90
11922;DHT22;6021;51.182;3.160;2024-03-02T11:17:47;9.90;99.90
11922;DHT22;6021;51.182;3.160;2024-03-02T11:20:16;10.30;99.90
11922;DHT22;6021;51.182;3.160;2024-03-02T11:22:46;10.50;99.90
11922;DHT22;6021;51.182;3.160;2024-03-02T11:25:26;10.40;99.90
11922;DHT22;6021;51.182;3.160;2024-03-02T11:33:07;10.20;99.90
11922;DHT22;6021;51.182;3.160;2024-03-02T11:35:43;10.10;99.90
11922;DHT22;6021;51.182;3.160;2024-03-02T11:38:16;10.00;99.90
11922;DHT22;6021;51.182;3.160;2024-03-02T11:40:47;10.00;99.90
11922;DHT22;6021;51.182;3.160;2024-03-02T11:43:15;10.00;99.90
11922;DHT22;6021;51.182;3.160;2024-03-02T11:45:44;10.10;99.90
11922;DHT22;6021;51.182;3.160;2024-03-02T11:48:14;10.00;99.90
11922;DHT22;6021;51.182;3.160;2024-03-02T11:50:47;10.10;99.90
11922;DHT22;6021;51.182;3.160;2024-03-02T11:53:18;9.80;99.90
11922;DHT22;6021;51.182;3.160;2024-03-02T11:55:48;9.80;99.90
11922;DHT22;6021;51.182;3.160;2024-03-02T11:58:19;9.80;99.90
11922;DHT22;6021;51.182;3.160;2024-03-02T12:00:51;9.80;99.90
11922;DHT22;6021;51.182;3.160;2024-03-02T12:03:27;9.80;99.90
11922;DHT22;6021;51.182;3.160;2024-03-02T12:05:55;10.00;99.90
11922;DHT22;6021;51.182;3.160;2024-03-02T12:08:25;10.10;99.90
11922;DHT22;6021;51.182;3.160;2024-03-02T12:10:59;9.70;99.90
11922;DHT22;6021;51.182;3.160;2024-03-02T12:13:28;9.80;99.90
11922;DHT22;6021;51.182;3.160;2024-03-02T12:15:57;9.70;99.90
11922;DHT22;6021;51.182;3.160;2024-03-02T12:18:25;9.70;99.90
11922;DHT22;6021;51.182;3.160;2024-03-02T12:20:54;9.40;1.00
11922;DHT22;6021;51.182;3.160;2024-03-02T12:23:24;9.30;1.00
11922;DHT22;6021;51.182;3.160;2024-03-02T12:25:53;9.30;1.00
11922;DHT22;6021;51.182;3.160;2024-03-02T12:28:21;9.40;1.00
11922;DHT22;6021;51.182;3.160;2024-03-02T12:30:50;9.00;1.00
11922;DHT22;6021;51.182;3.160;2024-03-02T12:33:20;8.80;1.00
11922;DHT22;6021;51.182;3.160;2024-03-02T12:35:49;9.00;1.00
11922;DHT22;6021;51.182;3.160;2024-03-02T12:38:18;8.80;1.00
11922;DHT22;6021;51.182;3.160;2024-03-02T12:40:48;8.70;1.00
11922;DHT22;6021;51.182;3.160;2024-03-02T12:43:16;8.70;21.40
11922;DHT22;6021;51.182;3.160;2024-03-02T12:45:45;8.70;43.30
11922;DHT22;6021;51.182;3.160;2024-03-02T12:48:13;8.70;71.00
11922;DHT22;6021;51.182;3.160;2024-03-02T12:50:42;8.60;78.50
11922;DHT22;6021;51.182;3.160;2024-03-02T12:53:15;8.80;90.80
11922;DHT22;6021;51.182;3.160;2024-03-02T12:55:44;8.80;99.90
11922;DHT22;6021;51.182;3.160;2024-03-02T12:58:22;8.60;99.90
11922;DHT22;6021;51.182;3.160;2024-03-02T13:00:51;8.60;99.90
11922;DHT22;6021;51.182;3.160;2024-03-02T13:03:22;8.60;99.90
11922;DHT22;6021;51.182;3.160;2024-03-02T13:05:50;8.80;99.90
11922;DHT22;6021;51.182;3.160;2024-03-02T13:08:20;8.80;99.90
11922;DHT22;6021;51.182;3.160;2024-03-02T13:10:49;8.70;99.90
11922;DHT22;6021;51.182;3.160;2024-03-02T13:13:17;8.70;99.90
11922;DHT22;6021;51.182;3.160;2024-03-02T13:15:45;8.70;99.90
11922;DHT22;6021;51.182;3.160;2024-03-02T13:18:14;8.60;99.90
11922;DHT22;6021;51.182;3.160;2024-03-02T13:20:42;8.80;99.90
11922;DHT22;6021;51.182;3.160;2024-03-02T13:23:11;8.90;99.90
11922;DHT22;6021;51.182;3.160;2024-03-02T13:25:39;8.50;99.90
11922;DHT22;6021;51.182;3.160;2024-03-02T13:28:08;8.60;99.90
11922;DHT22;6021;51.182;3.160;2024-03-02T13:30:36;8.80;99.90
11922;DHT22;6021;51.182;3.160;2024-03-02T13:33:05;8.80;99.90
11922;DHT22;6021;51.182;3.160;2024-03-02T13:35:33;8.80;99.90
11922;DHT22;6021;51.182;3.160;2024-03-02T13:38:02;8.80;99.90
11922;DHT22;6021;51.182;3.160;2024-03-02T13:40:30;8.70;99.90
11922;DHT22;6021;51.182;3.160;2024-03-02T13:43:00;8.70;99.90
11922;DHT22;6021;51.182;3.160;2024-03-02T13:45:29;8.80;99.90
11922;DHT22;6021;51.182;3.160;2024-03-02T13:47:57;8.80;99.90
11922;DHT22;6021;51.182;3.160;2024-03-02T13:50:25;9.00;99.90
11922;DHT22;6021;51.182;3.160;2024-03-02T13:52:54;9.10;99.90
11922;DHT22;6021;51.182;3.160;2024-03-02T13:55:22;9.40;99.90
11922;DHT22;6021;51.182;3.160;2024-03-02T13:57:51;9.50;99.90
11922;DHT22;6021;51.182;3.160;2024-03-02T14:00:19;9.40;99.90
11922;DHT22;6021;51.182;3.160;2024-03-02T14:02:48;9.50;99.90
11922;DHT22;6021;51.182;3.160;2024-03-02T14:05:19;9.30;99.90
11922;DHT22;6021;51.182;3.160;2024-03-02T14:07:47;9.40;99.90
11922;DHT22;6021;51.182;3.160;2024-03-02T14:10:16;9.20;99.90
11922;DHT22;6021;51.182;3.160;2024-03-02T14:12:45;9.00;99.90
11922;DHT22;6021;51.182;3.160;2024-03-02T14:15:13;9.10;99.90
11922;DHT22;6021;51.182;3.160;2024-03-02T14:17:42;9.20;99.90
11922;DHT22;6021;51.182;3.160;2024-03-02T14:20:11;9.20;99.90
11922;DHT22;6021;51.182;3.160;2024-03-02T14:22:40;9.00;99.90
11922;DHT22;6021;51.182;3.160;2024-03-02T14:25:09;9.00;99.90
11922;DHT22;6021;51.182;3.160;2024-03-02T14:27:37;9.00;99.90
11922;DHT22;6021;51.182;3.160;2024-03-02T14:30:06;8.90;99.90
11922;DHT22;6021;51.182;3.160;2024-03-02T14:32:35;8.70;99.90
11922;DHT22;6021;51.182;3.160;2024-03-02T14:35:03;8.80;99.90
11922;DHT22;6021;51.182;3.160;2024-03-02T14:37:32;8.60;99.90
11922;DHT22;6021;51.182;3.160;2024-03-02T14:40:00;8.50;99.90
11922;DHT22;6021;51.182;3.160;2024-03-02T14:42:29;8.50;99.90
11922;DHT22;6021;51.182;3.160;2024-03-02T14:44:58;8.30;99.90
11922;DHT22;6021;51.182;3.160;2024-03-02T14:47:27;8.50;99.90
11922;DHT22;6021;51.182;3.160;2024-03-02T14:49:56;8.50;99.90
11922;DHT22;6021;51.182;3.160;2024-03-02T14:52:24;8.50;99.90
11922;DHT22;6021;51.182;3.160;2024-03-02T14:54:52;8.40;99.90
11922;DHT22;6021;51.182;3.160;2024-03-02T14:57:23;8.30;99.90
11922;DHT22;6021;51.182;3.160;2024-03-02T14:59:52;8.80;99.90
11922;DHT22;6021;51.182;3.160;2024-03-02T15:02:22;8.60;99.90
11922;DHT22;6021;51.182;3.160;2024-03-02T15:04:50;8.70;99.90
11922;DHT22;6021;51.182;3.160;2024-03-02T15:07:18;8.40;99.90
11922;DHT22;6021;51.182;3.160;2024-03-02T15:09:47;8.60;99.90
11922;DHT22;6021;51.182;3.160;2024-03-02T15:12:15;8.40;99.90
11922;DHT22;6021;51.182;3.160;2024-03-02T15:14:45;8.50;99.90
11922;DHT22;6021;51.182;3.160;2024-03-02T15:17:15;8.30;99.90
11922;DHT22;6021;51.182;3.160;2024-03-02T15:19:44;8.00;99.90
11922;DHT22;6021;51.182;3.160;2024-03-02T15:22:13;8.00;99.90
11922;DHT22;6021;51.182;3.160;2024-03-02T15:24:41;8.20;99.90
11922;DHT22;6021;51.182;3.160;2024-03-02T15:27:10;8.00;99.90
11922;DHT22;6021;51.182;3.160;2024-03-02T15:29:38;8.20;99.90
11922;DHT22;6021;51.182;3.160;2024-03-02T15:32:07;8.10;99.90
11922;DHT22;6021;51.182;3.160;2024-03-02T15:34:35;7.60;99.90
11922;DHT22;6021;51.182;3.160;2024-03-02T15:37:04;7.90;99.90
11922;DHT22;6021;51.182;3.160;2024-03-02T15:39:32;7.70;99.90
11922;DHT22;6021;51.182;3.160;2024-03-02T15:42:00;7.60;99.90
11922;DHT22;6021;51.182;3.160;2024-03-02T15:44:31;7.60;99.90
11922;DHT22;6021;51.182;3.160;2024-03-02T15:46:59;8.10;99.90
11922;DHT22;6021;51.182;3.160;2024-03-02T15:49:27;8.20;99.90
11922;DHT22;6021;51.182;3.160;2024-03-02T15:51:56;7.80;99.90
11922;DHT22;6021;51.182;3.160;2024-03-02T15:54:27;7.90;99.90
11922;DHT22;6021;51.182;3.160;2024-03-02T15:56:55;7.90;99.90
11922;DHT22;6021;51.182;3.160;2024-03-02T15:59:24;7.70;99.90
11922;DHT22;6021;51.182;3.160;2024-03-02T16:01:52;7.70;99.90
11922;DHT22;6021;51.182;3.160;2024-03-02T16:04:20;7.70;99.90
11922;DHT22;6021;51.182;3.160;2024-03-02T16:06:49;7.80;99.90
11922;DHT22;6021;51.182;3.160;2024-03-02T16:09:17;7.80;99.90
11922;DHT22;6021;51.182;3.160;2024-03-02T16:11:45;7.80;99.90
11922;DHT22;6021;51.182;3.160;2024-03-02T16:14:15;8.10;99.90
11922;DHT22;6021;51.182;3.160;2024-03-02T16:16:43;7.90;99.90
11922;DHT22;6021;51.182;3.160;2024-03-02T16:19:12;7.70;99.90
11922;DHT22;6021;51.182;3.160;2024-03-02T16:21:40;8.10;99.90